Portada
METAR-TAF:

METAR-TAF

Aeroports :

Aeroport de Lanzarote

Lanzarote, Espanya

latitud: 28-57N, longitud: 013-36W, altitud: 14 m

Observació

L'informe es va fer fa 25 minuts, a les 04:30 UTC
Vent 10 kt del Nord/Nord-Est
Temperatura 16°C
Humitat 82%
Pressió 1016 hPa
Visibilitat 10 km o més

METAR: GCRR 200430Z AUTO 03010KT 9999 NCD 16/13 Q1016

Hora: 04:55 (04:55 UTC)

Pronòstic

L'informe es va fer fa 2 hores i 55 minuts, a les 02:00 UTC
Pronòstic vàlid del 20 a les 03 UTC al 21 a les 03 UTC
Vent 12 kt del Nord/Nord-Est
Visibilitat 10 km o més
Escasses núvols a una alçada de 2500 ft
Probabilitat 30% :
Temporalment
l' 20 a les 12 UTC al 20 a les 16 UTC
Vent 12 kt del Est

TAF: GCRR 200200Z 2003/2103 02012KT 9999 FEW025 TX23/2014Z TN15/2006Z PROB30 TEMPO 2012/2016 08012KT

Observacions i pronòstics meteorològics de més de 4000 aeroports (METAR i TAF).

Les estacions disponibles són els punts grocs i vermells al mapa.

Posi el ratolí al punt desitjat per veure el nom de l'estació.

Feu clic per veure les observacions i els pronòstics meteorològics.

Per canviar el mapa: feu clic els botons verds amb una creu de color negre per apropar; al botó verd amb un guió per allunyar la imatge; o en les fletxes verdes per a mapes adjacents.


METAR-TAF: